createdAt,value
2023-01-17T00:01:48.504Z,93995.19
2023-01-17T00:04:33.658Z,93993.09
2023-01-17T00:07:18.448Z,93990.03
2023-01-17T00:09:53.753Z,93994.31
2023-01-17T00:12:21.132Z,93983.72
2023-01-17T00:14:48.319Z,93988.22
2023-01-17T00:17:15.906Z,93996.34
2023-01-17T00:20:01.460Z,93985.94
2023-01-17T00:22:49.716Z,93986.78
2023-01-17T00:25:37.237Z,93992.31
2023-01-17T00:28:05.130Z,93984.78
2023-01-17T00:30:31.938Z,93991.81
2023-01-17T00:32:58.504Z,93998.66
2023-01-17T00:35:26.385Z,93995.25
2023-01-17T00:38:01.691Z,93996.03
2023-01-17T00:40:28.417Z,93992.47
2023-01-17T00:43:13.607Z,93994.22
2023-01-17T00:45:58.832Z,93991.97
2023-01-17T00:48:43.667Z,93992.94
2023-01-17T00:51:28.801Z,93991.94
2023-01-17T00:54:13.650Z,93990.25
2023-01-17T00:56:58.650Z,93998.56
2023-01-17T00:59:43.810Z,93992.13
2023-01-17T01:02:28.936Z,93980.50
2023-01-17T01:05:13.889Z,93978.41
2023-01-17T01:07:58.804Z,93983.69
2023-01-17T01:10:44.204Z,93990.63
2023-01-17T01:13:29.158Z,93986.44
2023-01-17T01:16:14.349Z,93981.59
2023-01-17T01:18:59.739Z,93985.16
2023-01-17T01:21:45.166Z,93985.28
2023-01-17T01:24:30.148Z,93967.66
2023-01-17T01:27:15.053Z,93963.84
2023-01-17T01:30:00.118Z,93971.50
2023-01-17T01:32:45.760Z,93970.19
2023-01-17T01:35:12.389Z,93975.06
2023-01-17T01:37:39.426Z,93973.88
2023-01-17T01:40:06.645Z,93967.94
2023-01-17T01:42:33.107Z,93974.53
2023-01-17T01:44:59.534Z,93971.75
2023-01-17T01:47:33.784Z,93960.97
2023-01-17T01:50:03.114Z,93956.91
2023-01-17T01:52:32.116Z,93953.66
2023-01-17T01:55:20.732Z,93944.47
2023-01-17T01:57:50.836Z,93948.78
2023-01-17T02:00:22.224Z,93942.72
2023-01-17T02:02:50.688Z,93937.09
2023-01-17T02:05:20.697Z,93926.97
2023-01-17T02:08:02.504Z,93930.78
2023-01-17T02:10:35.689Z,93923.09
2023-01-17T02:13:03.276Z,93917.81
2023-01-17T02:15:44.987Z,93924.78
2023-01-17T02:18:49.873Z,93930.31
2023-01-17T02:21:26.272Z,93932.84
2023-01-17T02:24:37.738Z,93932.72
2023-01-17T02:27:11.499Z,93925.91
2023-01-17T02:29:56.616Z,93921.28
2023-01-17T02:32:44.483Z,93913.28
2023-01-17T02:35:25.520Z,93915.25
2023-01-17T02:38:10.688Z,93907.50
2023-01-17T02:40:43.157Z,93908.44
2023-01-17T02:43:15.399Z,93905.13
2023-01-17T02:45:42.921Z,93910.78
2023-01-17T02:48:13.391Z,93905.47
2023-01-17T02:51:10.683Z,93899.97
2023-01-17T02:53:46.372Z,93900.97
2023-01-17T02:56:43.559Z,93897.28
2023-01-17T02:59:34.901Z,93890.84
2023-01-17T03:02:17.786Z,93895.03
2023-01-17T03:04:51.297Z,93892.75
2023-01-17T03:07:21.327Z,93887.44
2023-01-17T03:09:54.380Z,93891.88
2023-01-17T03:12:21.525Z,93886.63
2023-01-17T03:14:48.014Z,93899.38
2023-01-17T03:17:14.545Z,93903.31
2023-01-17T03:19:41.133Z,93886.75
2023-01-17T03:22:08.009Z,93885.69
2023-01-17T03:24:34.454Z,93888.97
2023-01-17T03:27:01.075Z,93893.84
2023-01-17T03:29:27.640Z,93895.69
2023-01-17T03:31:54.121Z,93895.00
2023-01-17T03:34:21.205Z,93886.59
2023-01-17T03:36:47.643Z,93867.41
2023-01-17T03:39:14.259Z,93873.84
2023-01-17T03:41:40.770Z,93871.06
2023-01-17T03:44:07.194Z,93858.38
2023-01-17T03:46:33.683Z,93861.53
2023-01-17T03:49:00.190Z,93863.16
2023-01-17T03:51:27.120Z,93863.06
2023-01-17T03:53:53.683Z,93865.72
2023-01-17T03:56:21.452Z,93857.91
2023-01-17T03:58:48.213Z,93853.72
2023-01-17T04:01:15.229Z,93850.94
2023-01-17T04:03:41.905Z,93853.09
2023-01-17T04:06:08.372Z,93841.50
2023-01-17T04:08:34.868Z,93842.72
2023-01-17T04:11:01.442Z,93837.16
2023-01-17T04:13:27.983Z,93830.63
2023-01-17T04:15:54.525Z,93837.28
2023-01-17T04:18:23.766Z,93821.34
2023-01-17T04:20:51.535Z,93816.63
2023-01-17T04:23:18.154Z,93812.22
2023-01-17T04:25:44.775Z,93813.84
2023-01-17T04:28:11.960Z,93811.84
2023-01-17T04:30:38.838Z,93799.88
2023-01-17T04:33:05.437Z,93803.44
2023-01-17T04:35:33.523Z,93811.09
2023-01-17T04:38:00.084Z,93807.56
2023-01-17T04:40:27.037Z,93793.47
2023-01-17T04:42:54.276Z,93785.47
2023-01-17T04:45:21.028Z,93776.09
2023-01-17T04:47:47.779Z,93777.25
2023-01-17T04:50:14.343Z,93766.63
2023-01-17T04:52:40.899Z,93764.28
2023-01-17T04:55:08.693Z,93768.13
2023-01-17T04:57:35.460Z,93762.09
2023-01-17T05:00:02.070Z,93757.91
2023-01-17T05:02:28.621Z,93756.34
2023-01-17T05:04:55.260Z,93747.78
2023-01-17T05:07:21.885Z,93734.59
2023-01-17T05:09:48.631Z,93742.47
2023-01-17T05:12:15.145Z,93738.94
2023-01-17T05:14:41.586Z,93732.56
2023-01-17T05:17:08.275Z,93725.19
2023-01-17T05:19:34.837Z,93718.56
2023-01-17T05:22:04.140Z,93716.19
2023-01-17T05:24:31.341Z,93713.69
2023-01-17T05:27:02.926Z,93719.41
2023-01-17T05:29:30.446Z,93716.47
2023-01-17T05:31:57.339Z,93716.50
2023-01-17T05:34:24.032Z,93725.16
2023-01-17T05:36:51.134Z,93735.94
2023-01-17T05:39:17.726Z,93736.59
2023-01-17T05:41:44.552Z,93743.38
2023-01-17T05:44:11.112Z,93744.22
2023-01-17T05:46:37.797Z,93737.69
2023-01-17T05:49:04.438Z,93748.41
2023-01-17T05:51:31.212Z,93744.50
2023-01-17T05:53:57.756Z,93739.78
2023-01-17T05:56:24.211Z,93734.78
2023-01-17T05:58:53.962Z,93738.97
2023-01-17T06:01:21.543Z,93740.03
2023-01-17T06:03:48.316Z,93727.31
2023-01-17T06:06:14.962Z,93730.31
2023-01-17T06:08:41.430Z,93727.56
2023-01-17T06:11:07.897Z,93721.69
2023-01-17T06:13:34.461Z,93714.31
2023-01-17T06:16:03.004Z,93707.34
2023-01-17T06:18:30.594Z,93706.66
2023-01-17T06:20:57.153Z,93701.50
2023-01-17T06:23:24.251Z,93702.41
2023-01-17T06:25:54.641Z,93713.16
2023-01-17T06:28:22.826Z,93694.09
2023-01-17T06:30:50.169Z,93699.69
2023-01-17T06:33:16.975Z,93698.63
2023-01-17T06:35:53.755Z,93697.19
2023-01-17T06:38:22.974Z,93689.69
2023-01-17T06:40:49.790Z,93678.53
2023-01-17T06:43:16.538Z,93692.63
2023-01-17T06:45:43.150Z,93691.84
2023-01-17T06:48:09.630Z,93680.75
2023-01-17T06:50:36.468Z,93688.50
2023-01-17T06:53:05.917Z,93690.16
2023-01-17T06:55:34.106Z,93688.16
2023-01-17T06:58:02.683Z,93695.81
2023-01-17T07:00:31.129Z,93693.16
2023-01-17T07:02:57.917Z,93681.59
2023-01-17T07:05:24.845Z,93678.03
2023-01-17T07:07:51.543Z,93667.47
2023-01-17T07:10:18.829Z,93680.53
2023-01-17T07:12:46.241Z,93680.47
2023-01-17T07:15:13.408Z,93670.63
2023-01-17T07:17:40.124Z,93667.22
2023-01-17T07:20:07.478Z,93673.41
2023-01-17T07:22:34.181Z,93672.69
2023-01-17T07:25:00.730Z,93660.16
2023-01-17T07:27:30.365Z,93657.25
2023-01-17T07:29:57.333Z,93639.97
2023-01-17T07:32:25.966Z,93644.50
2023-01-17T07:34:52.508Z,93641.66
2023-01-17T07:37:20.685Z,93622.66
2023-01-17T07:39:47.276Z,93608.69
2023-01-17T07:42:14.084Z,93603.53
2023-01-17T07:44:43.986Z,93600.44
2023-01-17T07:47:11.100Z,93605.38
2023-01-17T07:49:38.001Z,93600.91
2023-01-17T07:52:07.235Z,93584.22
2023-01-17T07:54:33.838Z,93579.00
2023-01-17T07:57:00.500Z,93570.81
2023-01-17T07:59:27.185Z,93563.69
2023-01-17T08:01:53.833Z,93554.75
2023-01-17T08:04:21.440Z,93545.41
2023-01-17T08:06:50.882Z,93533.44
2023-01-17T08:09:18.204Z,93528.78
2023-01-17T08:11:44.978Z,93531.22
2023-01-17T08:14:11.487Z,93508.13
2023-01-17T08:16:38.680Z,93502.59
2023-01-17T08:19:05.171Z,93481.00
2023-01-17T08:21:31.661Z,93481.50
2023-01-17T08:23:58.095Z,93484.13
2023-01-17T08:26:24.809Z,93486.22
2023-01-17T08:28:57.143Z,93476.50
2023-01-17T08:31:24.277Z,93444.72
2023-01-17T08:33:52.095Z,93423.00
2023-01-17T08:36:19.042Z,93438.13
2023-01-17T08:38:46.052Z,93455.84
2023-01-17T08:41:13.041Z,93448.72
2023-01-17T08:43:39.863Z,93423.22
2023-01-17T08:46:06.558Z,93410.44
2023-01-17T08:48:33.182Z,93409.91
2023-01-17T08:51:02.886Z,93408.13
2023-01-17T08:53:29.852Z,93407.50
2023-01-17T08:56:01.456Z,93413.94
2023-01-17T08:58:30.601Z,93394.16
2023-01-17T09:01:03.141Z,93413.94
2023-01-17T09:03:30.694Z,93394.78
2023-01-17T09:06:19.529Z,93385.75
2023-01-17T09:08:47.084Z,93388.88
2023-01-17T09:11:16.788Z,93390.66
2023-01-17T09:13:43.666Z,93390.47
2023-01-17T09:16:10.524Z,93395.78
2023-01-17T09:18:37.442Z,93373.06
2023-01-17T09:21:22.598Z,93378.44
2023-01-17T09:23:51.880Z,93380.78
2023-01-17T09:26:29.794Z,93386.38
2023-01-17T09:28:56.933Z,93404.41
2023-01-17T09:31:24.527Z,93372.34
2023-01-17T09:33:54.661Z,93394.50
2023-01-17T09:36:22.237Z,93399.41
2023-01-17T09:38:48.686Z,93383.59
2023-01-17T09:41:34.621Z,93390.09
2023-01-17T09:44:08.088Z,93391.97
2023-01-17T09:46:41.836Z,93390.34
2023-01-17T09:49:26.751Z,93389.66
2023-01-17T09:51:53.876Z,93405.09
2023-01-17T09:54:23.305Z,93403.66
2023-01-17T09:57:03.018Z,93397.66
2023-01-17T09:59:45.507Z,93401.16
2023-01-17T10:02:34.815Z,93396.81
2023-01-17T10:05:21.129Z,93404.84
2023-01-17T10:08:08.795Z,93392.41
2023-01-17T10:11:05.857Z,93399.19
2023-01-17T10:14:06.199Z,93393.75
2023-01-17T10:16:43.580Z,93394.84
2023-01-17T10:19:46.705Z,93390.75
2023-01-17T10:22:31.003Z,93377.28
2023-01-17T10:25:27.105Z,93389.16
2023-01-17T10:28:35.339Z,93379.34
2023-01-17T10:31:13.255Z,93365.56
2023-01-17T10:33:54.155Z,93357.75
2023-01-17T10:36:26.497Z,93363.88
2023-01-17T10:39:12.873Z,93357.91
2023-01-17T10:41:43.800Z,93342.41
2023-01-17T10:44:35.226Z,93329.72
2023-01-17T10:47:01.718Z,93333.78
2023-01-17T10:49:28.560Z,93318.56
2023-01-17T10:52:10.498Z,93307.09
2023-01-17T10:54:46.190Z,93298.03
2023-01-17T10:57:23.579Z,93297.28
2023-01-17T10:59:51.991Z,93305.66
2023-01-17T11:02:25.846Z,93300.06
2023-01-17T11:04:55.068Z,93282.66
2023-01-17T11:07:24.652Z,93282.72
2023-01-17T11:09:53.849Z,93260.53
2023-01-17T11:12:35.564Z,93256.00
2023-01-17T11:15:20.320Z,93275.78
2023-01-17T11:17:53.003Z,93251.09
2023-01-17T11:20:39.882Z,93237.69
2023-01-17T11:23:26.456Z,93243.03
2023-01-17T11:25:58.140Z,93215.88
2023-01-17T11:28:26.317Z,93223.88
2023-01-17T11:31:01.582Z,93211.09
2023-01-17T11:33:46.022Z,93223.91
2023-01-17T11:36:30.194Z,93185.50
2023-01-17T11:39:18.391Z,93186.19
2023-01-17T11:41:47.796Z,93170.94
2023-01-17T11:44:26.332Z,93165.78
2023-01-17T11:47:19.462Z,93146.72
2023-01-17T11:49:49.694Z,93137.25
2023-01-17T11:52:27.300Z,93120.50
2023-01-17T11:54:55.400Z,93085.66
2023-01-17T11:57:29.666Z,93085.16
2023-01-17T12:00:23.232Z,93064.97
2023-01-17T12:03:13.622Z,93052.09
2023-01-17T12:05:55.132Z,93066.03
2023-01-17T12:08:55.753Z,93060.47
2023-01-17T12:12:07.150Z,93068.66
2023-01-17T12:14:52.198Z,93075.63
2023-01-17T12:17:30.792Z,93072.94
2023-01-17T12:20:06.185Z,93058.72
2023-01-17T12:22:54.324Z,93061.00
2023-01-17T12:25:24.313Z,93053.31
2023-01-17T12:27:59.862Z,93052.81
2023-01-17T12:30:58.031Z,93052.03
2023-01-17T12:33:47.316Z,93068.28
2023-01-17T12:36:34.636Z,93060.25
2023-01-17T12:39:07.963Z,93031.06
2023-01-17T12:41:41.537Z,93026.50
2023-01-17T12:44:13.651Z,93041.69
2023-01-17T12:46:48.997Z,93023.41
2023-01-17T12:49:27.912Z,93031.06
2023-01-17T12:52:10.695Z,93027.31
2023-01-17T12:54:41.312Z,93034.47
2023-01-17T12:57:18.707Z,93028.69
2023-01-17T13:00:07.179Z,93046.09
2023-01-17T13:02:49.171Z,93035.34
2023-01-17T13:05:49.029Z,93043.56
2023-01-17T13:08:41.362Z,93046.34
2023-01-17T13:11:14.829Z,93049.38
2023-01-17T13:13:43.310Z,93060.59
2023-01-17T13:16:15.873Z,93073.31
2023-01-17T13:18:47.070Z,93062.47
2023-01-17T13:21:27.368Z,93061.91
2023-01-17T13:23:59.791Z,93068.09
2023-01-17T13:26:52.547Z,93063.41
2023-01-17T13:29:29.969Z,93076.03
2023-01-17T13:32:17.989Z,93074.03
2023-01-17T13:35:19.586Z,93063.41
2023-01-17T13:38:20.605Z,93079.00
2023-01-17T13:40:58.752Z,93094.34
2023-01-17T13:43:30.176Z,93110.50
2023-01-17T13:46:01.326Z,93106.09
2023-01-17T13:48:37.397Z,93097.41
2023-01-17T13:51:06.208Z,93102.19
2023-01-17T13:53:35.719Z,93112.38
2023-01-17T13:56:14.103Z,93124.94
2023-01-17T13:58:54.724Z,93115.59
2023-01-17T14:01:24.192Z,93122.31
2023-01-17T14:03:51.539Z,93134.72
2023-01-17T14:06:33.233Z,93143.78
2023-01-17T14:09:02.926Z,93138.81
2023-01-17T14:11:33.694Z,93153.06
2023-01-17T14:14:36.869Z,93159.72
2023-01-17T14:17:29.225Z,93168.88
2023-01-17T14:20:01.733Z,93184.09
2023-01-17T14:22:31.987Z,93176.16
2023-01-17T14:25:17.389Z,93178.53
2023-01-17T14:27:52.818Z,93182.13
2023-01-17T14:30:31.551Z,93187.69
2023-01-17T14:33:01.239Z,93202.03
2023-01-17T14:35:35.163Z,93213.91
2023-01-17T14:38:03.105Z,93214.56
2023-01-17T14:40:32.569Z,93213.63
2023-01-17T14:43:22.343Z,93213.28
2023-01-17T14:45:49.734Z,93212.34
2023-01-17T14:48:22.596Z,93218.31
2023-01-17T14:50:52.113Z,93213.59
2023-01-17T14:53:22.658Z,93216.41
2023-01-17T14:55:49.545Z,93211.78
2023-01-17T14:58:27.932Z,93205.75
2023-01-17T15:01:21.221Z,93204.19
2023-01-17T15:03:50.826Z,93196.38
2023-01-17T15:06:21.372Z,93192.28
2023-01-17T15:08:49.393Z,93201.88
2023-01-17T15:11:23.203Z,93184.50
2023-01-17T15:13:53.330Z,93165.06
2023-01-17T15:16:20.814Z,93168.56
2023-01-17T15:18:48.157Z,93178.88
2023-01-17T15:21:23.547Z,93176.34
2023-01-17T15:23:56.330Z,93147.84
2023-01-17T15:26:25.626Z,93149.06
2023-01-17T15:29:30.050Z,93160.63
2023-01-17T15:31:59.203Z,93161.34
2023-01-17T15:34:37.707Z,93169.38
2023-01-17T15:37:22.304Z,93177.50
2023-01-17T15:39:49.618Z,93187.66
2023-01-17T15:42:26.120Z,93188.16
2023-01-17T15:45:02.039Z,93196.41
2023-01-17T15:47:33.657Z,93199.56
2023-01-17T15:50:02.188Z,93200.50
2023-01-17T15:52:29.120Z,93213.63
2023-01-17T15:55:13.712Z,93222.38
2023-01-17T15:57:40.510Z,93231.31
2023-01-17T16:00:20.952Z,93235.06
2023-01-17T16:02:55.398Z,93245.56
2023-01-17T16:05:22.600Z,93249.47
2023-01-17T16:08:09.385Z,93264.91
2023-01-17T16:10:37.915Z,93261.03
2023-01-17T16:13:06.264Z,93278.06
2023-01-17T16:15:35.218Z,93283.56
2023-01-17T16:18:03.660Z,93279.94
2023-01-17T16:20:35.203Z,93298.09
2023-01-17T16:23:02.638Z,93291.66
2023-01-17T16:25:33.038Z,93292.44
2023-01-17T16:28:00.015Z,93304.63
2023-01-17T16:30:27.382Z,93327.09
2023-01-17T16:32:54.061Z,93333.53
2023-01-17T16:35:26.155Z,93333.06
2023-01-17T16:37:55.046Z,93329.38
2023-01-17T16:40:24.281Z,93329.22
2023-01-17T16:42:51.082Z,93332.22
2023-01-17T16:45:20.193Z,93328.75
2023-01-17T16:47:48.084Z,93341.91
2023-01-17T16:50:17.533Z,93337.50
2023-01-17T16:52:44.252Z,93342.06
2023-01-17T16:55:13.819Z,93350.94
2023-01-17T16:57:40.427Z,93354.84
2023-01-17T17:00:07.969Z,93358.16
2023-01-17T17:02:34.496Z,93369.41
2023-01-17T17:05:01.120Z,93372.38
2023-01-17T17:07:27.594Z,93374.63
2023-01-17T17:09:54.057Z,93382.94
2023-01-17T17:12:21.177Z,93364.63
2023-01-17T17:14:47.966Z,93379.16
2023-01-17T17:17:14.579Z,93367.81
2023-01-17T17:19:41.017Z,93371.53
2023-01-17T17:22:07.630Z,93375.31
2023-01-17T17:24:34.216Z,93381.91
2023-01-17T17:27:00.759Z,93389.31
2023-01-17T17:29:27.268Z,93391.78
2023-01-17T17:31:53.963Z,93398.59
2023-01-17T17:34:23.273Z,93406.75
2023-01-17T17:36:51.950Z,93401.28
2023-01-17T17:39:18.426Z,93398.97
2023-01-17T17:41:48.136Z,93405.09
2023-01-17T17:44:14.744Z,93415.75
2023-01-17T17:46:42.243Z,93422.94
2023-01-17T17:49:09.276Z,93414.19
2023-01-17T17:51:38.815Z,93425.81
2023-01-17T17:54:08.073Z,93420.13
2023-01-17T17:56:35.008Z,93429.78
2023-01-17T17:59:02.412Z,93428.84
2023-01-17T18:01:29.522Z,93439.53
2023-01-17T18:04:00.520Z,93436.44
2023-01-17T18:06:27.044Z,93429.56
2023-01-17T18:08:54.019Z,93423.31
2023-01-17T18:11:24.591Z,93429.25
2023-01-17T18:13:53.167Z,93428.47
2023-01-17T18:16:31.820Z,93425.31
2023-01-17T18:18:59.118Z,93427.97
2023-01-17T18:21:28.370Z,93428.63
2023-01-17T18:23:58.786Z,93421.75
2023-01-17T18:26:27.728Z,93420.66
2023-01-17T18:28:55.909Z,93412.66
2023-01-17T18:31:27.195Z,93419.53
2023-01-17T18:34:04.373Z,93417.50
2023-01-17T18:36:31.251Z,93432.06
2023-01-17T18:38:58.135Z,93437.75
2023-01-17T18:41:27.099Z,93451.13
2023-01-17T18:43:56.264Z,93446.25
2023-01-17T18:46:23.118Z,93458.16
2023-01-17T18:48:50.286Z,93457.34
2023-01-17T18:51:19.592Z,93440.44
2023-01-17T18:53:46.505Z,93438.09
2023-01-17T18:56:16.029Z,93448.53
2023-01-17T18:58:44.824Z,93447.16
2023-01-17T19:01:16.170Z,93445.28
2023-01-17T19:03:44.681Z,93461.25
2023-01-17T19:06:15.515Z,93458.63
2023-01-17T19:08:42.717Z,93454.00
2023-01-17T19:11:10.232Z,93463.53
2023-01-17T19:13:38.333Z,93466.59
2023-01-17T19:16:11.222Z,93464.44
2023-01-17T19:18:38.133Z,93471.47
2023-01-17T19:21:07.612Z,93476.81
2023-01-17T19:23:35.710Z,93482.38
2023-01-17T19:26:06.577Z,93483.94
2023-01-17T19:28:35.671Z,93487.56
2023-01-17T19:31:14.648Z,93501.09
2023-01-17T19:33:43.647Z,93492.19
2023-01-17T19:36:17.055Z,93498.22
2023-01-17T19:38:52.218Z,93505.47
2023-01-17T19:41:27.261Z,93514.19
2023-01-17T19:43:58.682Z,93517.44
2023-01-17T19:46:29.720Z,93512.31
2023-01-17T19:48:57.187Z,93524.06
2023-01-17T19:51:24.841Z,93516.78
2023-01-17T19:53:51.531Z,93507.72
2023-01-17T19:56:23.984Z,93512.72
2023-01-17T19:58:52.405Z,93512.84
2023-01-17T20:01:21.823Z,93522.44
2023-01-17T20:03:49.025Z,93514.34
2023-01-17T20:06:19.729Z,93519.34
2023-01-17T20:08:51.328Z,93524.03
2023-01-17T20:11:20.435Z,93526.53
2023-01-17T20:13:54.613Z,93530.47
2023-01-17T20:16:22.377Z,93521.28
2023-01-17T20:18:49.547Z,93523.50
2023-01-17T20:21:22.290Z,93531.75
2023-01-17T20:23:50.897Z,93534.97
2023-01-17T20:26:21.473Z,93524.63
2023-01-17T20:28:50.147Z,93529.75
2023-01-17T20:31:18.878Z,93524.00
2023-01-17T20:33:47.012Z,93523.94
2023-01-17T20:36:15.666Z,93520.00
2023-01-17T20:38:46.040Z,93527.94
2023-01-17T20:41:28.704Z,93516.28
2023-01-17T20:43:57.025Z,93516.19
2023-01-17T20:46:26.314Z,93521.38
2023-01-17T20:48:57.926Z,93525.53
2023-01-17T20:51:26.529Z,93519.69
2023-01-17T20:53:59.722Z,93516.84
2023-01-17T20:56:27.343Z,93522.13
2023-01-17T20:58:54.562Z,93517.06
2023-01-17T21:01:23.039Z,93522.19
2023-01-17T21:03:53.111Z,93526.91
2023-01-17T21:06:22.242Z,93523.47
2023-01-17T21:08:49.555Z,93530.31
2023-01-17T21:11:21.146Z,93526.69
2023-01-17T21:13:51.372Z,93534.84
2023-01-17T21:16:22.455Z,93538.97
2023-01-17T21:18:52.317Z,93526.97
2023-01-17T21:21:25.350Z,93532.69
2023-01-17T21:23:54.234Z,93536.47
2023-01-17T21:26:23.084Z,93538.25
2023-01-17T21:28:51.285Z,93536.59
2023-01-17T21:31:33.564Z,93529.88
2023-01-17T21:34:05.809Z,93530.38
2023-01-17T21:36:35.632Z,93534.81
2023-01-17T21:39:04.770Z,93526.34
2023-01-17T21:41:36.830Z,93524.31
2023-01-17T21:44:07.988Z,93528.22
2023-01-17T21:46:38.211Z,93524.25
2023-01-17T21:49:05.202Z,93527.59
2023-01-17T21:51:50.522Z,93525.91
2023-01-17T21:54:17.044Z,93530.22
2023-01-17T21:57:02.005Z,93538.06
2023-01-17T21:59:31.137Z,93541.34
2023-01-17T22:01:58.434Z,93532.84
2023-01-17T22:04:25.792Z,93526.06
2023-01-17T22:06:55.235Z,93539.13
2023-01-17T22:09:22.625Z,93542.16
2023-01-17T22:11:49.052Z,93537.09
2023-01-17T22:14:15.517Z,93536.53
2023-01-17T22:16:41.967Z,93538.56
2023-01-17T22:19:08.646Z,93536.03
2023-01-17T22:21:35.095Z,93542.13
2023-01-17T22:24:01.619Z,93534.81
2023-01-17T22:26:30.773Z,93528.50
2023-01-17T22:29:00.380Z,93534.41
2023-01-17T22:31:27.795Z,93536.69
2023-01-17T22:33:58.408Z,93527.25
2023-01-17T22:36:25.822Z,93522.75
2023-01-17T22:38:53.188Z,93520.66
2023-01-17T22:41:23.264Z,93524.13
2023-01-17T22:43:52.416Z,93531.81
2023-01-17T22:46:21.686Z,93535.53
2023-01-17T22:48:48.621Z,93540.84
2023-01-17T22:51:17.179Z,93546.47
2023-01-17T22:53:50.087Z,93542.91
2023-01-17T22:56:23.339Z,93547.59
2023-01-17T22:58:50.638Z,93548.63
2023-01-17T23:01:38.522Z,93550.94
2023-01-17T23:04:05.433Z,93549.56
2023-01-17T23:06:37.269Z,93546.91
2023-01-17T23:09:13.462Z,93543.47
2023-01-17T23:11:51.727Z,93543.28
2023-01-17T23:15:02.244Z,93552.41
2023-01-17T23:17:47.445Z,93552.94
2023-01-17T23:20:14.899Z,93547.56
2023-01-17T23:22:41.913Z,93538.72
2023-01-17T23:25:12.476Z,93552.53
2023-01-17T23:28:03.633Z,93549.91
2023-01-17T23:30:41.405Z,93551.38
2023-01-17T23:33:10.385Z,93552.94
2023-01-17T23:35:42.142Z,93551.88
2023-01-17T23:38:33.915Z,93552.06
2023-01-17T23:41:19.164Z,93547.25
2023-01-17T23:43:50.778Z,93555.09
2023-01-17T23:46:17.307Z,93551.28
2023-01-17T23:48:43.735Z,93556.50
2023-01-17T23:51:11.002Z,93559.94
2023-01-17T23:53:39.095Z,93571.75
2023-01-17T23:56:12.638Z,93577.56
2023-01-17T23:58:39.186Z,93578.38
